AZU2670 SBCF-SBGL
Flight info
| Callsign | AZU2670 |
|---|---|
| Flight time | N/A |
| Altitude | 25000 |
| Route | MAVGU |
| Aircraft | A320/M-SDE3FGHIRWY/LB1 |
Departure
| Time | N/A |
|---|---|
| Airport | Tancredo Neves International Airport (SBCF) |
Arrival
| Time | 2026-04-29 01:43 |
|---|---|
| Airport | Rio Galeão – Tom Jobim International Airport (SBGL) |
| Time | Latitude | Longitude | Altitude | Speed | Heading |
|---|---|---|---|---|---|
| 2026-04-29 01:16 | -20.78870 | -43.93888 | 25126 ft | 441 kts | 200° |
| 2026-04-29 01:16 | -20.81801 | -43.94812 | 25123 ft | 438 kts | 200° |
| 2026-04-29 01:16 | -20.84721 | -43.95737 | 25125 ft | 437 kts | 200° |
| 2026-04-29 01:17 | -20.87637 | -43.96662 | 25124 ft | 437 kts | 200° |
| 2026-04-29 01:17 | -20.90551 | -43.97588 | 25124 ft | 437 kts | 200° |
| 2026-04-29 01:17 | -20.93465 | -43.98513 | 25125 ft | 437 kts | 200° |
| 2026-04-29 01:17 | -20.96068 | -43.99338 | 25125 ft | 437 kts | 200° |
| 2026-04-29 01:18 | -20.98979 | -44.00257 | 25134 ft | 437 kts | 200° |
| 2026-04-29 01:18 | -21.04801 | -44.02093 | 25128 ft | 436 kts | 200° |
| 2026-04-29 01:18 | -21.07712 | -44.03011 | 25126 ft | 436 kts | 200° |
| 2026-04-29 01:19 | -21.10621 | -44.03926 | 25125 ft | 436 kts | 200° |
| 2026-04-29 01:19 | -21.13529 | -44.04843 | 25124 ft | 436 kts | 200° |
| 2026-04-29 01:19 | -21.16436 | -44.05760 | 25127 ft | 436 kts | 200° |
| 2026-04-29 01:19 | -21.19310 | -44.06668 | 25128 ft | 436 kts | 200° |
| 2026-04-29 01:20 | -21.22218 | -44.07587 | 25125 ft | 436 kts | 200° |
| 2026-04-29 01:20 | -21.25128 | -44.08506 | 25126 ft | 436 kts | 200° |
| 2026-04-29 01:20 | -21.28035 | -44.09424 | 25126 ft | 436 kts | 200° |
| 2026-04-29 01:20 | -21.30947 | -44.10344 | 25127 ft | 436 kts | 200° |
| 2026-04-29 01:21 | -21.33858 | -44.11264 | 25129 ft | 436 kts | 200° |
| 2026-04-29 01:21 | -21.36769 | -44.12183 | 25131 ft | 436 kts | 200° |
| 2026-04-29 01:21 | -21.39691 | -44.13065 | 25130 ft | 438 kts | 196° |
| 2026-04-29 01:21 | -21.42728 | -44.13487 | 25135 ft | 443 kts | 185° |
| 2026-04-29 01:22 | -21.45774 | -44.13295 | 25133 ft | 448 kts | 174° |
| 2026-04-29 01:22 | -21.48801 | -44.12475 | 25130 ft | 451 kts | 162° |
| 2026-04-29 01:22 | -21.51651 | -44.11042 | 25129 ft | 454 kts | 150° |
| 2026-04-29 01:22 | -21.54348 | -44.09290 | 25129 ft | 454 kts | 150° |
| 2026-04-29 01:23 | -21.57057 | -44.07538 | 25126 ft | 454 kts | 152° |
| 2026-04-29 01:23 | -21.59852 | -44.06038 | 24925 ft | 443 kts | 156° |
| 2026-04-29 01:23 | -21.62615 | -44.04618 | 24700 ft | 438 kts | 156° |
| 2026-04-29 01:23 | -21.65356 | -44.03218 | 24479 ft | 435 kts | 156° |
| 2026-04-29 01:24 | -21.68082 | -44.01829 | 24243 ft | 430 kts | 156° |
| 2026-04-29 01:24 | -21.70738 | -44.00471 | 23807 ft | 427 kts | 156° |
| 2026-04-29 01:24 | -21.73413 | -43.99100 | 23291 ft | 425 kts | 156° |
| 2026-04-29 01:24 | -21.76064 | -43.97736 | 22833 ft | 421 kts | 156° |
| 2026-04-29 01:25 | -21.78700 | -43.96377 | 22373 ft | 417 kts | 156° |
| 2026-04-29 01:25 | -21.81309 | -43.95031 | 21908 ft | 414 kts | 156° |
| 2026-04-29 01:25 | -21.83898 | -43.93693 | 21455 ft | 412 kts | 156° |
| 2026-04-29 01:25 | -21.86476 | -43.92365 | 20983 ft | 410 kts | 156° |
| 2026-04-29 01:26 | -21.89048 | -43.91043 | 20514 ft | 409 kts | 155° |
| 2026-04-29 01:26 | -21.91606 | -43.89726 | 20031 ft | 408 kts | 155° |
| 2026-04-29 01:26 | -21.94130 | -43.88427 | 19562 ft | 406 kts | 155° |
| 2026-04-29 01:26 | -21.96677 | -43.87114 | 19083 ft | 406 kts | 155° |
| 2026-04-29 01:27 | -21.99222 | -43.85801 | 18602 ft | 405 kts | 155° |
| 2026-04-29 01:27 | -22.01760 | -43.84490 | 18088 ft | 404 kts | 155° |
| 2026-04-29 01:27 | -22.04258 | -43.83197 | 17903 ft | 389 kts | 155° |
| 2026-04-29 01:27 | -22.06624 | -43.81969 | 17769 ft | 366 kts | 155° |
| 2026-04-29 01:28 | -22.08874 | -43.80801 | 17647 ft | 354 kts | 155° |
| 2026-04-29 01:28 | -22.11064 | -43.79664 | 17516 ft | 345 kts | 155° |
| 2026-04-29 01:28 | -22.13198 | -43.78559 | 17389 ft | 336 kts | 155° |
| 2026-04-29 01:28 | -22.15275 | -43.77488 | 17121 ft | 326 kts | 155° |
| 2026-04-29 01:29 | -22.17314 | -43.76434 | 16784 ft | 323 kts | 155° |
| 2026-04-29 01:29 | -22.19302 | -43.75404 | 16534 ft | 320 kts | 155° |
| 2026-04-29 01:29 | -22.21301 | -43.74367 | 16276 ft | 318 kts | 155° |
| 2026-04-29 01:29 | -22.23287 | -43.73339 | 16017 ft | 315 kts | 155° |
| 2026-04-29 01:30 | -22.25260 | -43.72318 | 15761 ft | 313 kts | 155° |
| 2026-04-29 01:30 | -22.27216 | -43.71303 | 15516 ft | 311 kts | 155° |
| 2026-04-29 01:30 | -22.29142 | -43.70302 | 15383 ft | 304 kts | 155° |
| 2026-04-29 01:30 | -22.31028 | -43.69319 | 15258 ft | 298 kts | 155° |
| 2026-04-29 01:31 | -22.32890 | -43.68350 | 15096 ft | 295 kts | 155° |
| 2026-04-29 01:31 | -22.34733 | -43.67394 | 15090 ft | 295 kts | 155° |
| 2026-04-29 01:31 | -22.36558 | -43.66446 | 15033 ft | 297 kts | 155° |
| 2026-04-29 01:31 | -22.38456 | -43.65463 | 14539 ft | 306 kts | 155° |
| 2026-04-29 01:32 | -22.40348 | -43.64483 | 14422 ft | 298 kts | 155° |
| 2026-04-29 01:32 | -22.42194 | -43.63523 | 14299 ft | 291 kts | 155° |
| 2026-04-29 01:32 | -22.44008 | -43.62589 | 14087 ft | 288 kts | 158° |
| 2026-04-29 01:32 | -22.45941 | -43.62160 | 13834 ft | 283 kts | 185° |
| 2026-04-29 01:33 | -22.47806 | -43.62704 | 13563 ft | 277 kts | 211° |
| 2026-04-29 01:33 | -22.49436 | -43.63804 | 13260 ft | 276 kts | 216° |
| 2026-04-29 01:33 | -22.50984 | -43.64974 | 12985 ft | 274 kts | 217° |
| 2026-04-29 01:33 | -22.52535 | -43.66166 | 12701 ft | 273 kts | 217° |
| 2026-04-29 01:34 | -22.54086 | -43.67352 | 12408 ft | 273 kts | 217° |
| 2026-04-29 01:34 | -22.55638 | -43.68530 | 12126 ft | 272 kts | 217° |
| 2026-04-29 01:34 | -22.57235 | -43.69613 | 11828 ft | 272 kts | 202° |
| 2026-04-29 01:34 | -22.59084 | -43.69922 | 11554 ft | 272 kts | 173° |
| 2026-04-29 01:35 | -22.60850 | -43.69258 | 11264 ft | 271 kts | 146° |
| 2026-04-29 01:35 | -22.62211 | -43.67822 | 10613 ft | 283 kts | 120° |
| 2026-04-29 01:35 | -22.62881 | -43.65806 | 9903 ft | 289 kts | 96° |
| 2026-04-29 01:35 | -22.63091 | -43.63627 | 9119 ft | 293 kts | 94° |
| 2026-04-29 01:36 | -22.63296 | -43.61454 | 8359 ft | 296 kts | 95° |
| 2026-04-29 01:36 | -22.63367 | -43.60702 | 8111 ft | 297 kts | 95° |
| 2026-04-29 01:37 | -22.64104 | -43.53259 | 7081 ft | 253 kts | 97° |
| 2026-04-29 01:37 | -22.64636 | -43.51480 | 7085 ft | 254 kts | 118° |
| 2026-04-29 01:37 | -22.65633 | -43.49899 | 7044 ft | 256 kts | 125° |
| 2026-04-29 01:37 | -22.66689 | -43.48319 | 6441 ft | 262 kts | 124° |
| 2026-04-29 01:38 | -22.67758 | -43.46712 | 5756 ft | 265 kts | 124° |
| 2026-04-29 01:38 | -22.68832 | -43.45093 | 5245 ft | 262 kts | 124° |
| 2026-04-29 01:38 | -22.69880 | -43.43514 | 4831 ft | 256 kts | 124° |
| 2026-04-29 01:38 | -22.70911 | -43.41959 | 4353 ft | 252 kts | 124° |
| 2026-04-29 01:39 | -22.71927 | -43.40426 | 3881 ft | 249 kts | 124° |
| 2026-04-29 01:39 | -22.72921 | -43.38926 | 3405 ft | 241 kts | 124° |
| 2026-04-29 01:39 | -22.73866 | -43.37500 | 2769 ft | 233 kts | 124° |
| 2026-04-29 01:39 | -22.74797 | -43.36096 | 2281 ft | 223 kts | 124° |
| 2026-04-29 01:40 | -22.75674 | -43.34774 | 1902 ft | 211 kts | 124° |
| 2026-04-29 01:40 | -22.76496 | -43.33535 | 1609 ft | 194 kts | 124° |
| 2026-04-29 01:40 | -22.77245 | -43.32405 | 1342 ft | 174 kts | 125° |
| 2026-04-29 01:40 | -22.77913 | -43.31398 | 1122 ft | 157 kts | 125° |
| 2026-04-29 01:41 | -22.78529 | -43.30468 | 929 ft | 149 kts | 125° |
| 2026-04-29 01:41 | -22.79127 | -43.29566 | 755 ft | 146 kts | 126° |
| 2026-04-29 01:41 | -22.79707 | -43.28690 | 591 ft | 144 kts | 126° |
| 2026-04-29 01:41 | -22.80293 | -43.27805 | 399 ft | 144 kts | 125° |
| 2026-04-29 01:42 | -22.80868 | -43.26922 | 224 ft | 144 kts | 125° |
| 2026-04-29 01:42 | -22.81452 | -43.26049 | 51 ft | 141 kts | 125° |
| 2026-04-29 01:42 | -22.81972 | -43.25268 | 27 ft | 105 kts | 126° |
| 2026-04-29 01:42 | -22.82301 | -43.24771 | 18 ft | 59 kts | 124° |
| 2026-04-29 01:43 | -22.82354 | -43.24611 | 20 ft | 13 kts | 95° |
| 2026-04-29 01:43 | -22.82366 | -43.24516 | 19 ft | 13 kts | 98° |
| 2026-04-29 01:43 | -22.82341 | -43.24430 | 19 ft | 12 kts | 39° |
| 2026-04-29 01:43 | -22.82277 | -43.24378 | 19 ft | 10 kts | 34° |
| 2026-04-29 01:44 | -22.82236 | -43.24346 | 21 ft | 7 kts | 38° |
| 2026-04-29 01:44 | -22.82217 | -43.24330 | 23 ft | 15 kts | 37° |
| 2026-04-29 01:44 | -22.82089 | -43.24358 | 21 ft | 18 kts | 307° |
| 2026-04-29 01:44 | -22.82004 | -43.24489 | 24 ft | 20 kts | 305° |
| 2026-04-29 01:45 | -22.81867 | -43.24594 | 21 ft | 20 kts | 37° |
| 2026-04-29 01:45 | -22.81747 | -43.24580 | 21 ft | 19 kts | 329° |
| 2026-04-29 01:45 | -22.81666 | -43.24619 | 23 ft | 10 kts | 359° |
| 2026-04-29 01:45 | -22.81616 | -43.24623 | 22 ft | 3 kts | 356° |
| 2026-04-29 01:46 | -22.81611 | -43.24623 | 22 ft | 0 kts | 356° |